createdAt,value
2018-05-08T00:01:17.713Z,12.00
2018-05-08T00:03:43.925Z,11.90
2018-05-08T00:06:10.168Z,11.80
2018-05-08T00:08:36.373Z,11.70
2018-05-08T00:11:03.717Z,11.70
2018-05-08T00:13:30.341Z,11.70
2018-05-08T00:15:56.572Z,11.70
2018-05-08T00:18:22.792Z,11.60
2018-05-08T00:20:49.607Z,11.70
2018-05-08T00:23:15.815Z,11.60
2018-05-08T00:25:42.408Z,11.60
2018-05-08T00:28:09.109Z,11.70
2018-05-08T00:30:36.417Z,11.70
2018-05-08T00:33:02.661Z,11.60
2018-05-08T00:35:29.451Z,11.70
2018-05-08T00:37:56.413Z,11.60
2018-05-08T00:40:23.381Z,11.50
2018-05-08T00:42:49.632Z,11.50
2018-05-08T00:45:17.560Z,11.50
2018-05-08T00:47:45.033Z,11.40
2018-05-08T00:50:11.997Z,11.30
2018-05-08T00:52:38.824Z,11.30
2018-05-08T00:55:05.824Z,11.30
2018-05-08T00:57:32.083Z,11.30
2018-05-08T00:59:58.703Z,11.30
2018-05-08T01:02:24.949Z,11.30
2018-05-08T01:04:51.202Z,11.20
2018-05-08T01:07:18.205Z,11.30
2018-05-08T01:09:45.093Z,11.30
2018-05-08T01:12:11.301Z,11.30
2018-05-08T01:14:38.357Z,11.30
2018-05-08T01:17:05.102Z,11.30
2018-05-08T01:19:32.041Z,11.20
2018-05-08T01:21:58.261Z,11.30
2018-05-08T01:24:24.469Z,11.20
2018-05-08T01:26:51.851Z,11.00
2018-05-08T01:29:18.078Z,11.00
2018-05-08T01:31:44.749Z,11.00
2018-05-08T01:34:10.960Z,11.00
2018-05-08T01:36:38.057Z,11.00
2018-05-08T01:39:04.301Z,11.10
2018-05-08T01:41:30.960Z,11.10
2018-05-08T01:43:57.821Z,11.00
2018-05-08T01:46:25.533Z,11.00
2018-05-08T01:48:52.333Z,11.00
2018-05-08T01:51:19.301Z,11.00
2018-05-08T01:53:46.001Z,10.90
2018-05-08T01:56:12.229Z,11.00
2018-05-08T01:58:39.008Z,11.00
2018-05-08T02:01:05.977Z,10.90
2018-05-08T02:03:32.197Z,10.90
2018-05-08T02:05:59.472Z,10.90
2018-05-08T02:08:26.000Z,10.90
2018-05-08T02:10:52.965Z,10.90
2018-05-08T02:13:19.801Z,10.90
2018-05-08T02:15:47.405Z,10.90
2018-05-08T02:18:14.306Z,10.80
2018-05-08T02:20:41.582Z,10.90
2018-05-08T02:23:07.797Z,10.80
2018-05-08T02:25:35.266Z,10.70
2018-05-08T02:28:02.229Z,10.60
2018-05-08T02:30:28.454Z,10.60
2018-05-08T02:33:01.648Z,10.60
2018-05-08T02:35:29.517Z,10.60
2018-05-08T02:37:56.472Z,10.60
2018-05-08T02:40:24.404Z,10.50
2018-05-08T02:42:51.386Z,10.50
2018-05-08T02:45:18.845Z,10.50
2018-05-08T02:47:46.332Z,10.50
2018-05-08T02:50:13.006Z,10.40
2018-05-08T02:52:39.807Z,10.40
2018-05-08T02:55:06.785Z,10.40
2018-05-08T02:57:33.001Z,10.50
2018-05-08T02:59:59.690Z,10.40
2018-05-08T03:02:25.913Z,10.40
2018-05-08T03:04:52.453Z,10.40
2018-05-08T03:07:18.701Z,10.40
2018-05-08T03:09:44.911Z,10.40
2018-05-08T03:12:11.717Z,10.30
2018-05-08T03:14:39.113Z,10.20
2018-05-08T03:17:05.325Z,10.20
2018-05-08T03:19:32.725Z,10.10
2018-05-08T03:21:59.528Z,10.10
2018-05-08T03:24:26.480Z,10.00
2018-05-08T03:26:53.464Z,10.00
2018-05-08T03:29:19.688Z,10.00
2018-05-08T03:31:45.896Z,10.00
2018-05-08T03:34:12.950Z,10.00
2018-05-08T03:36:40.379Z,10.00
2018-05-08T03:39:07.377Z,10.00
2018-05-08T03:41:33.960Z,10.00
2018-05-08T03:44:00.172Z,10.10
2018-05-08T03:46:26.853Z,10.10
2018-05-08T03:48:53.577Z,10.20
2018-05-08T03:51:21.502Z,10.10
2018-05-08T03:53:49.164Z,10.10
2018-05-08T03:56:16.125Z,10.10
2018-05-08T03:58:43.072Z,10.10
2018-05-08T04:01:22.861Z,9.90
2018-05-08T04:04:02.495Z,9.90
2018-05-08T04:09:37.061Z,9.90
2018-05-08T04:12:03.278Z,9.80
2018-05-08T04:14:30.160Z,9.80
2018-05-08T04:16:57.133Z,9.90
2018-05-08T04:19:23.957Z,9.90
2018-05-08T04:21:50.953Z,10.00
2018-05-08T04:24:17.189Z,9.90
2018-05-08T04:26:43.464Z,9.90
2018-05-08T04:29:09.710Z,10.00
2018-05-08T04:31:36.748Z,10.00
2018-05-08T04:34:03.002Z,10.00
2018-05-08T04:36:30.602Z,10.00
2018-05-08T04:38:57.272Z,10.00
2018-05-08T04:41:23.497Z,10.10
2018-05-08T04:43:49.733Z,10.10
2018-05-08T04:46:16.385Z,10.20
2018-05-08T04:48:43.058Z,10.30
2018-05-08T04:51:11.625Z,10.50
2018-05-08T04:53:38.941Z,10.60
2018-05-08T04:56:05.712Z,10.60
2018-05-08T04:58:32.933Z,10.60
2018-05-08T05:00:59.989Z,10.80
2018-05-08T05:03:26.661Z,10.80
2018-05-08T05:05:52.913Z,10.90
2018-05-08T05:08:19.545Z,11.00
2018-05-08T05:10:45.757Z,11.10
2018-05-08T05:13:12.901Z,11.20
2018-05-08T05:15:39.125Z,11.30
2018-05-08T05:18:05.953Z,11.40
2018-05-08T05:20:33.490Z,11.60
2018-05-08T05:22:59.701Z,11.60
2018-05-08T05:25:25.926Z,11.70
2018-05-08T05:27:52.161Z,11.80
2018-05-08T05:30:18.389Z,11.90
2018-05-08T05:32:45.181Z,12.10
2018-05-08T05:35:12.055Z,12.20
2018-05-08T05:37:39.446Z,12.40
2018-05-08T05:40:05.702Z,12.40
2018-05-08T05:42:32.001Z,12.60
2018-05-08T05:44:59.385Z,12.70
2018-05-08T05:47:26.294Z,12.80
2018-05-08T05:49:53.137Z,12.90
2018-05-08T05:52:20.720Z,13.20
2018-05-08T05:54:46.939Z,13.20
2018-05-08T05:57:14.393Z,13.40
2018-05-08T05:59:41.698Z,13.50
2018-05-08T06:02:07.924Z,13.50
2018-05-08T06:04:34.143Z,13.60
2018-05-08T06:07:00.913Z,13.70
2018-05-08T06:09:27.152Z,13.80
2018-05-08T06:11:53.377Z,14.00
2018-05-08T06:14:19.989Z,14.00
2018-05-08T06:16:47.653Z,14.30
2018-05-08T06:19:15.904Z,14.40
2018-05-08T06:21:42.672Z,14.40
2018-05-08T06:24:09.629Z,14.60
2018-05-08T06:26:36.610Z,14.70
2018-05-08T06:29:02.869Z,14.70
2018-05-08T06:31:29.462Z,14.80
2018-05-08T06:33:56.872Z,14.80
2018-05-08T06:36:23.088Z,14.90
2018-05-08T06:38:49.297Z,14.90
2018-05-08T06:41:15.568Z,15.10
2018-05-08T06:43:41.808Z,15.20
2018-05-08T06:46:08.768Z,15.30
2018-05-08T06:48:35.406Z,15.40
2018-05-08T06:51:01.629Z,15.50
2018-05-08T06:53:28.432Z,15.60
2018-05-08T06:55:55.405Z,15.80
2018-05-08T06:58:21.662Z,15.80
2018-05-08T07:00:48.601Z,15.90
2018-05-08T07:03:16.334Z,15.90
2018-05-08T07:05:43.292Z,15.90
2018-05-08T07:08:09.545Z,15.90
2018-05-08T07:10:35.790Z,16.00
2018-05-08T07:13:02.969Z,16.10
2018-05-08T07:15:29.511Z,16.20
2018-05-08T07:17:55.728Z,16.30
2018-05-08T07:20:22.493Z,16.30
2018-05-08T07:22:49.133Z,16.40
2018-05-08T07:25:15.361Z,16.50
2018-05-08T07:27:41.955Z,16.60
2018-05-08T07:30:09.544Z,16.80
2018-05-08T07:32:36.469Z,16.70
2018-05-08T07:35:04.022Z,16.80
2018-05-08T07:37:31.494Z,16.90
2018-05-08T07:39:58.445Z,17.00
2018-05-08T07:42:25.426Z,17.10
2018-05-08T07:44:52.032Z,17.00
2018-05-08T07:47:19.597Z,17.30
2018-05-08T07:49:47.103Z,17.40
2018-05-08T07:52:13.911Z,17.40
2018-05-08T07:54:40.871Z,17.60
2018-05-08T07:57:07.080Z,17.60
2018-05-08T07:59:34.578Z,17.70
2018-05-08T08:02:01.405Z,17.70
2018-05-08T08:04:28.367Z,18.00
2018-05-08T08:06:54.590Z,18.00
2018-05-08T08:09:22.037Z,18.00
2018-05-08T08:11:49.463Z,18.00
2018-05-08T08:14:16.266Z,18.00
2018-05-08T08:16:42.950Z,18.00
2018-05-08T08:19:09.153Z,18.10
2018-05-08T08:21:35.968Z,18.30
2018-05-08T08:24:02.941Z,18.40
2018-05-08T08:26:30.501Z,18.40
2018-05-08T08:28:57.912Z,18.50
2018-05-08T08:31:24.550Z,18.50
2018-05-08T08:33:50.780Z,18.50
2018-05-08T08:36:17.017Z,18.50
2018-05-08T08:38:43.886Z,18.50
2018-05-08T08:41:10.097Z,18.60
2018-05-08T08:43:36.329Z,18.50
2018-05-08T08:46:03.072Z,18.70
2018-05-08T08:48:29.762Z,18.70
2018-05-08T08:50:56.718Z,18.80
2018-05-08T08:53:24.143Z,18.90
2018-05-08T08:55:50.369Z,18.90
2018-05-08T08:58:17.174Z,18.90
2018-05-08T09:00:43.986Z,19.10
2018-05-08T09:03:10.187Z,19.10
2018-05-08T09:05:36.821Z,19.30
2018-05-08T09:08:03.385Z,19.40
2018-05-08T09:10:29.647Z,19.40
2018-05-08T09:12:57.369Z,19.60
2018-05-08T09:15:24.496Z,19.60
2018-05-08T09:17:51.451Z,19.70
2018-05-08T09:20:18.266Z,19.70
2018-05-08T09:22:45.176Z,19.60
2018-05-08T09:25:11.844Z,19.70
2018-05-08T09:27:38.550Z,19.80
2018-05-08T09:30:06.372Z,20.00
2018-05-08T09:32:34.518Z,20.00
2018-05-08T09:35:01.413Z,20.00
2018-05-08T09:37:28.385Z,20.30
2018-05-08T09:39:54.609Z,20.30
2018-05-08T09:42:21.609Z,20.30
2018-05-08T09:44:48.522Z,20.30
2018-05-08T09:47:15.207Z,20.40
2018-05-08T09:49:41.423Z,20.30
2018-05-08T09:52:08.551Z,20.50
2018-05-08T09:54:34.803Z,20.60
2018-05-08T09:57:01.420Z,20.60
2018-05-08T09:59:28.999Z,20.80
2018-05-08T10:01:55.243Z,20.80
2018-05-08T10:04:21.918Z,21.00
2018-05-08T10:06:48.619Z,20.90
2018-05-08T10:09:14.773Z,21.00
2018-05-08T10:11:41.031Z,21.00
2018-05-08T10:14:07.920Z,21.10
2018-05-08T10:16:34.903Z,21.30
2018-05-08T10:19:01.148Z,21.30
2018-05-08T10:21:27.856Z,21.40
2018-05-08T10:23:55.753Z,21.50
2018-05-08T10:26:21.972Z,21.60
2018-05-08T10:28:48.185Z,21.50
2018-05-08T10:31:15.143Z,21.60
2018-05-08T10:33:42.098Z,21.70
2018-05-08T10:36:09.129Z,21.80
2018-05-08T10:38:36.112Z,21.80
2018-05-08T10:41:02.324Z,21.80
2018-05-08T10:43:29.891Z,22.00
2018-05-08T10:45:57.294Z,22.00
2018-05-08T10:48:23.956Z,22.00
2018-05-08T10:50:50.527Z,22.00
2018-05-08T10:53:17.908Z,22.20
2018-05-08T10:55:44.911Z,22.30
2018-05-08T10:58:11.096Z,22.30
2018-05-08T11:00:37.692Z,22.30
2018-05-08T11:03:04.348Z,22.30
2018-05-08T11:05:30.568Z,22.30
2018-05-08T11:07:56.786Z,22.40
2018-05-08T11:10:23.012Z,22.60
2018-05-08T11:12:55.448Z,22.50
2018-05-08T11:15:23.112Z,22.70
2018-05-08T11:17:50.782Z,22.80
2018-05-08T11:20:18.567Z,22.90
2018-05-08T11:22:45.131Z,22.90
2018-05-08T11:25:11.364Z,22.80
2018-05-08T11:27:37.586Z,22.80
2018-05-08T11:30:03.843Z,23.00
2018-05-08T11:32:30.684Z,23.10
2018-05-08T11:34:57.440Z,22.90
2018-05-08T11:37:24.137Z,23.00
2018-05-08T11:39:51.459Z,23.30
2018-05-08T11:42:18.173Z,23.20
2018-05-08T11:44:45.194Z,23.10
2018-05-08T11:47:11.865Z,23.20
2018-05-08T11:49:38.577Z,23.20
2018-05-08T11:52:06.056Z,23.30
2018-05-08T11:54:32.628Z,23.20
2018-05-08T11:56:58.872Z,23.30
2018-05-08T11:59:25.523Z,23.40
2018-05-08T12:01:52.356Z,23.20
2018-05-08T12:04:18.577Z,23.40
2018-05-08T12:06:44.829Z,23.50
2018-05-08T12:09:11.145Z,23.70
2018-05-08T12:11:38.068Z,23.80
2018-05-08T12:14:05.627Z,24.00
2018-05-08T12:16:33.125Z,24.00
2018-05-08T12:19:00.044Z,24.00
2018-05-08T12:21:26.993Z,23.80
2018-05-08T12:23:53.953Z,24.00
2018-05-08T12:26:20.279Z,24.10
2018-05-08T12:28:47.250Z,24.20
2018-05-08T12:31:14.023Z,24.20
2018-05-08T12:33:40.649Z,24.20
2018-05-08T12:36:06.941Z,24.30
2018-05-08T12:38:34.328Z,24.10
2018-05-08T12:41:01.472Z,24.10
2018-05-08T12:43:28.436Z,24.10
2018-05-08T12:45:55.268Z,24.20
2018-05-08T12:48:22.689Z,24.30
2018-05-08T12:50:50.059Z,24.30
2018-05-08T12:53:17.499Z,24.40
2018-05-08T12:55:43.750Z,24.40
2018-05-08T12:58:10.601Z,24.40
2018-05-08T13:00:38.742Z,24.50
2018-05-08T13:03:04.977Z,24.50
2018-05-08T13:05:31.214Z,24.60
2018-05-08T13:07:57.484Z,24.70
2018-05-08T13:10:24.446Z,24.70
2018-05-08T13:12:50.753Z,24.70
2018-05-08T13:15:17.810Z,24.80
2018-05-08T13:17:44.639Z,24.90
2018-05-08T13:20:11.487Z,24.90
2018-05-08T13:22:37.724Z,25.00
2018-05-08T13:25:03.958Z,25.10
2018-05-08T13:27:30.186Z,25.20
2018-05-08T13:29:56.399Z,25.10
2018-05-08T13:32:22.696Z,25.10
2018-05-08T13:34:50.594Z,25.20
2018-05-08T13:37:18.049Z,25.30
2018-05-08T13:39:45.715Z,25.10
2018-05-08T13:42:12.676Z,25.30
2018-05-08T13:44:40.368Z,25.40
2018-05-08T13:47:07.300Z,25.40
2018-05-08T13:49:33.983Z,25.50
2018-05-08T13:52:00.613Z,25.30
2018-05-08T13:54:27.263Z,25.20
2018-05-08T13:56:54.981Z,25.40
2018-05-08T13:59:22.465Z,26.10
2018-05-08T14:01:48.728Z,26.10
2018-05-08T14:04:14.959Z,26.80
2018-05-08T14:06:41.678Z,27.00
2018-05-08T14:09:07.897Z,27.50
2018-05-08T14:11:35.534Z,27.80
2018-05-08T14:14:02.218Z,27.80
2018-05-08T14:16:28.435Z,27.70
2018-05-08T14:18:55.417Z,28.20
2018-05-08T14:21:21.682Z,28.10
2018-05-08T14:23:47.913Z,28.40
2018-05-08T14:26:14.228Z,28.40
2018-05-08T14:28:41.103Z,28.40
2018-05-08T14:31:07.318Z,28.20
2018-05-08T14:33:34.189Z,28.50
2018-05-08T14:36:00.815Z,28.40
2018-05-08T14:38:27.121Z,28.90
2018-05-08T14:40:53.268Z,29.10
2018-05-08T14:43:20.007Z,29.00
2018-05-08T14:45:46.776Z,29.30
2018-05-08T14:48:13.460Z,29.40
2018-05-08T14:50:39.703Z,29.40
2018-05-08T14:53:07.385Z,29.50
2018-05-08T14:55:33.619Z,29.50
2018-05-08T14:58:00.577Z,29.80
2018-05-08T15:00:27.453Z,29.80
2018-05-08T15:02:54.221Z,29.40
2018-05-08T15:05:20.444Z,30.20
2018-05-08T15:07:46.668Z,30.20
2018-05-08T15:10:13.385Z,29.90
2018-05-08T15:12:40.468Z,29.90
2018-05-08T15:15:07.378Z,30.30
2018-05-08T15:17:33.589Z,30.20
2018-05-08T15:19:59.840Z,30.20
2018-05-08T15:22:27.306Z,30.60
2018-05-08T15:24:54.290Z,30.70
2018-05-08T15:27:20.508Z,30.70
2018-05-08T15:29:47.284Z,30.30
2018-05-08T15:32:14.185Z,30.70
2018-05-08T15:34:41.156Z,30.30
2018-05-08T15:37:07.404Z,30.20
2018-05-08T15:39:33.682Z,30.40
2018-05-08T15:42:00.660Z,30.10
2018-05-08T15:44:28.434Z,30.40
2018-05-08T15:46:56.203Z,30.30
2018-05-08T15:49:22.842Z,30.80
2018-05-08T15:51:50.304Z,30.50
2018-05-08T15:54:17.294Z,30.80
2018-05-08T15:56:43.493Z,30.80
2018-05-08T15:59:10.534Z,30.80
2018-05-08T16:01:37.505Z,30.50
2018-05-08T16:04:03.729Z,30.40
2018-05-08T16:06:30.414Z,30.60
2018-05-08T16:08:56.633Z,30.50
2018-05-08T16:11:23.200Z,30.70
2018-05-08T16:13:50.102Z,30.90
2018-05-08T16:16:16.330Z,30.90
2018-05-08T16:18:43.753Z,30.30
2018-05-08T16:21:09.977Z,30.20
2018-05-08T16:23:36.192Z,30.00
2018-05-08T16:26:02.470Z,30.30
2018-05-08T16:28:29.464Z,29.40
2018-05-08T16:30:56.272Z,29.40
2018-05-08T16:33:22.506Z,29.10
2018-05-08T16:35:48.724Z,28.70
2018-05-08T16:38:15.618Z,28.20
2018-05-08T16:40:42.315Z,28.20
2018-05-08T16:43:09.327Z,27.90
2018-05-08T16:45:35.983Z,28.00
2018-05-08T16:48:02.729Z,27.10
2018-05-08T16:50:28.958Z,26.10
2018-05-08T16:52:55.726Z,25.30
2018-05-08T16:55:21.936Z,24.90
2018-05-08T16:57:48.956Z,24.80
2018-05-08T17:00:16.399Z,24.30
2018-05-08T17:02:42.600Z,24.20
2018-05-08T17:05:09.802Z,24.20
2018-05-08T17:07:37.420Z,23.80
2018-05-08T17:10:04.098Z,23.80
2018-05-08T17:12:30.333Z,23.80
2018-05-08T17:14:57.644Z,23.40
2018-05-08T17:17:23.868Z,23.40
2018-05-08T17:19:50.108Z,23.30
2018-05-08T17:22:16.365Z,22.80
2018-05-08T17:24:42.636Z,22.80
2018-05-08T17:27:10.110Z,22.40
2018-05-08T17:29:37.082Z,22.30
2018-05-08T17:32:03.647Z,22.20
2018-05-08T17:34:29.899Z,22.10
2018-05-08T17:36:56.687Z,22.00
2018-05-08T17:39:24.117Z,21.80
2018-05-08T17:41:51.836Z,21.70
2018-05-08T17:44:18.740Z,21.70
2018-05-08T17:46:45.619Z,21.70
2018-05-08T17:49:12.975Z,21.60
2018-05-08T17:51:39.706Z,21.50
2018-05-08T17:54:07.041Z,21.30
2018-05-08T17:56:33.282Z,21.30
2018-05-08T17:59:00.793Z,21.30
2018-05-08T18:01:27.824Z,21.10
2018-05-08T18:03:55.247Z,20.80
2018-05-08T18:06:22.607Z,20.80
2018-05-08T18:08:50.033Z,20.80
2018-05-08T18:11:16.775Z,20.70
2018-05-08T18:13:43.363Z,20.50
2018-05-08T18:16:09.618Z,20.50
2018-05-08T18:18:36.908Z,20.30
2018-05-08T18:21:03.124Z,20.30
2018-05-08T18:23:30.200Z,20.20
2018-05-08T18:25:57.359Z,20.10
2018-05-08T18:28:23.584Z,20.10
2018-05-08T18:30:50.524Z,20.00
2018-05-08T18:33:16.749Z,19.90
2018-05-08T18:35:44.320Z,19.70
2018-05-08T18:38:11.007Z,19.70
2018-05-08T18:40:37.260Z,19.60
2018-05-08T18:43:03.928Z,19.50
2018-05-08T18:45:30.544Z,19.30
2018-05-08T18:47:57.532Z,19.20
2018-05-08T18:50:23.786Z,19.20
2018-05-08T18:52:50.718Z,19.10
2018-05-08T18:55:18.073Z,18.90
2018-05-08T18:57:45.440Z,18.90
2018-05-08T19:00:18.926Z,18.80
2018-05-08T19:02:46.339Z,18.50
2018-05-08T19:05:12.571Z,18.50
2018-05-08T19:07:38.785Z,18.50
2018-05-08T19:10:05.490Z,18.40
2018-05-08T19:12:32.487Z,18.20
2018-05-08T19:15:05.838Z,18.20
2018-05-08T19:17:32.113Z,18.20
2018-05-08T19:20:04.360Z,18.10
2018-05-08T19:22:31.876Z,18.10
2018-05-08T19:24:58.139Z,18.10
2018-05-08T19:27:25.126Z,17.90
2018-05-08T19:29:57.330Z,17.90
2018-05-08T19:32:23.993Z,17.90
2018-05-08T19:34:56.428Z,17.90
2018-05-08T19:37:28.794Z,17.80
2018-05-08T19:39:55.647Z,17.80
2018-05-08T19:42:22.101Z,17.70
2018-05-08T19:44:48.780Z,17.70
2018-05-08T19:47:15.360Z,17.60
2018-05-08T19:49:41.615Z,17.50
2018-05-08T19:52:08.294Z,17.40
2018-05-08T19:54:34.530Z,17.30
2018-05-08T19:57:01.263Z,17.20
2018-05-08T19:59:28.157Z,17.10
2018-05-08T20:01:55.580Z,16.90
2018-05-08T20:04:21.797Z,16.80
2018-05-08T20:06:48.066Z,16.80
2018-05-08T20:09:14.696Z,16.70
2018-05-08T20:11:40.921Z,16.60
2018-05-08T20:14:07.710Z,16.50
2018-05-08T20:16:34.686Z,16.40
2018-05-08T20:19:00.921Z,16.40
2018-05-08T20:21:27.744Z,16.30
2018-05-08T20:23:53.969Z,16.10
2018-05-08T20:26:21.529Z,15.90
2018-05-08T20:28:48.494Z,15.90
2018-05-08T20:31:15.904Z,15.80
2018-05-08T20:33:42.130Z,15.80
2018-05-08T20:36:08.378Z,15.80
2018-05-08T20:38:35.041Z,15.90
2018-05-08T20:41:01.314Z,15.80
2018-05-08T20:43:27.589Z,15.70
2018-05-08T20:45:54.705Z,15.60
2018-05-08T20:48:21.776Z,15.60
2018-05-08T20:50:48.481Z,15.50
2018-05-08T20:53:15.886Z,15.50
2018-05-08T20:55:42.912Z,15.50
2018-05-08T20:58:09.844Z,15.50
2018-05-08T21:00:37.328Z,15.50
2018-05-08T21:03:03.553Z,15.50
2018-05-08T21:05:30.285Z,15.50
2018-05-08T21:07:57.248Z,15.50
2018-05-08T21:10:24.084Z,15.40
2018-05-08T21:12:51.054Z,15.50
2018-05-08T21:15:17.724Z,15.50
2018-05-08T21:17:45.406Z,15.50
2018-05-08T21:20:11.697Z,15.50
2018-05-08T21:22:38.400Z,15.50
2018-05-08T21:25:04.730Z,15.40
2018-05-08T21:27:37.376Z,15.30
2018-05-08T21:30:10.294Z,15.30
2018-05-08T21:32:36.504Z,15.10
2018-05-08T21:35:03.133Z,15.10
2018-05-08T21:37:29.332Z,15.00
2018-05-08T21:39:57.104Z,14.90
2018-05-08T21:42:24.668Z,14.90
2018-05-08T21:44:52.132Z,14.90
2018-05-08T21:47:19.518Z,14.90
2018-05-08T21:49:46.048Z,14.90
2018-05-08T21:52:12.612Z,14.90
2018-05-08T21:54:38.848Z,14.80
2018-05-08T21:57:05.656Z,14.80
2018-05-08T21:59:33.217Z,14.70
2018-05-08T22:02:00.184Z,14.60
2018-05-08T22:04:27.368Z,14.50
2018-05-08T22:06:53.693Z,14.50
2018-05-08T22:09:19.903Z,14.40
2018-05-08T22:11:46.878Z,14.20
2018-05-08T22:14:13.632Z,14.20
2018-05-08T22:16:40.181Z,14.20
2018-05-08T22:19:06.397Z,14.20
2018-05-08T22:21:32.609Z,14.10
2018-05-08T22:23:59.598Z,14.10
2018-05-08T22:26:26.333Z,14.00
2018-05-08T22:28:52.540Z,14.00
2018-05-08T22:31:19.506Z,13.80
2018-05-08T22:33:45.741Z,13.70
2018-05-08T22:36:11.952Z,13.70
2018-05-08T22:38:39.512Z,13.60
2018-05-08T22:41:06.461Z,13.50
2018-05-08T22:43:33.822Z,13.50
2018-05-08T22:46:01.207Z,13.40
2018-05-08T22:48:27.893Z,13.40
2018-05-08T22:50:54.573Z,13.30
2018-05-08T22:53:22.125Z,13.20
2018-05-08T22:55:48.822Z,13.20
2018-05-08T22:58:15.025Z,13.20
2018-05-08T23:00:41.857Z,13.10
2018-05-08T23:03:08.813Z,13.10
2018-05-08T23:05:35.784Z,13.00
2018-05-08T23:08:02.131Z,13.00
2018-05-08T23:10:28.355Z,13.00
2018-05-08T23:12:54.976Z,13.00
2018-05-08T23:15:22.568Z,12.80
2018-05-08T23:17:48.784Z,12.80
2018-05-08T23:20:15.013Z,12.70
2018-05-08T23:22:42.397Z,12.60
2018-05-08T23:25:08.622Z,12.50
2018-05-08T23:27:34.841Z,12.50
2018-05-08T23:30:03.425Z,12.40
2018-05-08T23:32:30.413Z,12.40
2018-05-08T23:34:56.631Z,12.40
2018-05-08T23:37:22.861Z,12.40
2018-05-08T23:39:49.581Z,12.40
2018-05-08T23:42:17.150Z,12.30
2018-05-08T23:44:44.937Z,12.30
2018-05-08T23:47:11.559Z,12.30
2018-05-08T23:49:39.837Z,12.20
2018-05-08T23:52:06.441Z,12.20
2018-05-08T23:54:32.658Z,12.20
2018-05-08T23:56:58.883Z,12.20
2018-05-08T23:59:25.649Z,12.10
